createdAt,value
2022-08-17T00:00:42.709Z,94.30
2022-08-17T00:01:14.598Z,93.43
2022-08-17T00:02:24.121Z,93.62
2022-08-17T00:03:14.528Z,93.82
2022-08-17T00:04:14.324Z,92.76
2022-08-17T00:05:14.249Z,92.85
2022-08-17T00:06:14.171Z,93.24
2022-08-17T00:07:14.105Z,92.57
2022-08-17T00:08:14.026Z,92.28
2022-08-17T00:09:18.697Z,92.38
2022-08-17T00:10:13.873Z,91.41
2022-08-17T00:11:13.796Z,91.80
2022-08-17T00:12:41.203Z,91.36
2022-08-17T00:13:13.648Z,90.89
2022-08-17T00:14:13.577Z,90.98
2022-08-17T00:15:13.531Z,90.02
2022-08-17T00:16:13.423Z,89.64
2022-08-17T00:17:13.359Z,89.15
2022-08-17T00:19:02.200Z,89.73
2022-08-17T00:19:13.206Z,89.64
2022-08-17T00:20:13.129Z,89.15
2022-08-17T00:21:13.048Z,89.25
2022-08-17T00:22:33.912Z,89.64
2022-08-17T00:23:12.899Z,89.44
2022-08-17T00:24:12.825Z,89.25
2022-08-17T00:25:12.761Z,89.54
2022-08-17T00:26:14.318Z,88.87
2022-08-17T00:27:12.602Z,88.96
2022-08-17T00:28:12.531Z,89.83
2022-08-17T00:29:19.615Z,87.90
2022-08-17T00:30:12.376Z,88.67
2022-08-17T00:31:12.298Z,87.81
2022-08-17T00:33:12.120Z,88.39
2022-08-17T00:33:16.861Z,88.67
2022-08-17T00:34:12.079Z,88.57
2022-08-17T00:35:12.004Z,88.29
2022-08-17T00:36:11.931Z,87.81
2022-08-17T00:37:11.861Z,87.81
2022-08-17T00:38:11.789Z,88.39
2022-08-17T00:39:11.709Z,86.85
2022-08-17T00:40:11.718Z,87.09
2022-08-17T00:41:11.553Z,86.99
2022-08-17T00:42:11.488Z,87.76
2022-08-17T00:43:11.410Z,87.48
2022-08-17T00:44:11.329Z,86.52
2022-08-17T00:45:11.254Z,87.76
2022-08-17T00:46:11.173Z,87.96
2022-08-17T00:47:11.102Z,87.67
2022-08-17T00:48:23.739Z,87.86
2022-08-17T00:49:10.949Z,86.99
2022-08-17T00:50:10.876Z,87.96
2022-08-17T00:51:10.797Z,87.96
2022-08-17T00:52:12.045Z,87.76
2022-08-17T00:53:10.654Z,87.67
2022-08-17T00:54:10.586Z,87.67
2022-08-17T00:55:10.498Z,88.34
2022-08-17T00:56:10.427Z,87.67
2022-08-17T00:57:10.350Z,87.57
2022-08-17T00:58:10.277Z,87.48
2022-08-17T00:59:10.204Z,88.15
2022-08-17T01:00:10.129Z,87.29
2022-08-17T01:01:10.118Z,87.48
2022-08-17T01:02:09.972Z,87.48
2022-08-17T01:03:09.901Z,87.29
2022-08-17T01:04:09.826Z,86.99
2022-08-17T01:05:09.754Z,86.80
2022-08-17T01:06:09.676Z,87.57
2022-08-17T01:07:09.604Z,86.38
2022-08-17T01:08:09.523Z,86.42
2022-08-17T01:09:09.444Z,86.85
2022-08-17T01:11:00.380Z,87.29
2022-08-17T01:11:09.299Z,85.84
2022-08-17T01:12:09.226Z,85.55
2022-08-17T01:13:09.149Z,85.84
2022-08-17T01:14:09.075Z,84.78
2022-08-17T01:15:08.995Z,85.65
2022-08-17T01:16:08.922Z,85.27
2022-08-17T01:17:08.848Z,85.36
2022-08-17T01:18:08.778Z,85.46
2022-08-17T01:19:08.697Z,84.98
2022-08-17T01:20:08.617Z,85.36
2022-08-17T01:21:08.545Z,84.88
2022-08-17T01:22:08.470Z,84.21
2022-08-17T01:23:08.408Z,83.83
2022-08-17T01:24:08.322Z,84.74
2022-08-17T01:25:08.246Z,82.86
2022-08-17T01:26:08.170Z,84.26
2022-08-17T01:27:10.168Z,82.63
2022-08-17T01:28:08.017Z,82.82
2022-08-17T01:29:07.946Z,82.92
2022-08-17T01:30:57.270Z,83.69
2022-08-17T01:31:07.792Z,82.82
2022-08-17T01:32:07.714Z,83.30
2022-08-17T01:33:07.639Z,82.92
2022-08-17T01:34:07.566Z,83.49
2022-08-17T01:35:07.494Z,82.34
2022-08-17T01:36:07.438Z,82.24
2022-08-17T01:37:07.334Z,82.63
2022-08-17T01:38:07.268Z,82.34
2022-08-17T01:39:07.191Z,81.76
2022-08-17T01:40:07.237Z,80.90
2022-08-17T01:41:07.035Z,81.09
2022-08-17T01:42:06.968Z,81.86
2022-08-17T01:43:06.886Z,80.42
2022-08-17T01:44:06.809Z,80.90
2022-08-17T01:45:06.738Z,79.75
2022-08-17T01:46:06.663Z,80.71
2022-08-17T01:47:06.586Z,80.80
2022-08-17T01:48:06.517Z,81.38
2022-08-17T01:49:06.432Z,82.05
2022-08-17T01:50:06.356Z,81.86
2022-08-17T01:51:06.283Z,81.86
2022-08-17T01:52:06.210Z,81.86
2022-08-17T01:53:06.130Z,82.05
2022-08-17T01:54:06.058Z,82.73
2022-08-17T01:55:05.983Z,81.57
2022-08-17T01:56:05.906Z,82.34
2022-08-17T01:57:05.832Z,82.24
2022-08-17T01:58:05.757Z,81.96
2022-08-17T01:59:05.677Z,82.43
2022-08-17T02:00:05.602Z,81.96
2022-08-17T02:01:05.559Z,81.63
2022-08-17T02:02:05.448Z,81.76
2022-08-17T02:03:05.378Z,81.48
2022-08-17T02:04:05.307Z,82.05
2022-08-17T02:05:05.230Z,81.92
2022-08-17T02:06:05.370Z,81.53
2022-08-17T02:07:05.078Z,80.42
2022-08-17T02:08:04.998Z,81.53
2022-08-17T02:09:04.920Z,81.82
2022-08-17T02:10:04.850Z,82.49
2022-08-17T02:11:04.774Z,82.40
2022-08-17T02:12:37.383Z,82.10
2022-08-17T02:13:04.620Z,82.40
2022-08-17T02:14:04.544Z,82.30
2022-08-17T02:15:04.466Z,82.87
2022-08-17T02:16:04.393Z,82.30
2022-08-17T02:17:04.323Z,82.49
2022-08-17T02:18:04.240Z,80.66
2022-08-17T02:19:04.170Z,81.53
2022-08-17T02:20:04.093Z,80.47
2022-08-17T02:21:04.022Z,80.96
2022-08-17T02:22:03.941Z,80.47
2022-08-17T02:23:03.859Z,80.28
2022-08-17T02:24:03.796Z,79.80
2022-08-17T02:25:03.715Z,79.71
2022-08-17T02:26:03.633Z,79.90
2022-08-17T02:27:03.557Z,79.19
2022-08-17T02:28:03.490Z,79.03
2022-08-17T02:29:03.414Z,79.28
2022-08-17T02:30:03.331Z,78.70
2022-08-17T02:31:03.402Z,78.80
2022-08-17T02:32:03.177Z,78.23
2022-08-17T02:33:04.231Z,78.32
2022-08-17T02:34:04.709Z,78.03
2022-08-17T02:35:02.958Z,78.03
2022-08-17T02:36:02.881Z,78.42
2022-08-17T02:37:02.809Z,78.32
2022-08-17T02:38:02.731Z,77.26
2022-08-17T02:39:02.648Z,77.26
2022-08-17T02:40:02.648Z,77.26
2022-08-17T02:41:02.507Z,77.17
2022-08-17T02:42:02.423Z,76.79
2022-08-17T02:43:02.354Z,75.35
2022-08-17T02:44:02.271Z,75.54
2022-08-17T02:45:02.197Z,75.45
2022-08-17T02:46:02.122Z,74.48
2022-08-17T02:47:02.045Z,74.58
2022-08-17T02:48:01.968Z,74.87
2022-08-17T02:49:01.891Z,74.68
2022-08-17T02:50:01.814Z,74.01
2022-08-17T02:51:01.736Z,73.72
2022-08-17T02:52:01.662Z,73.91
2022-08-17T02:53:04.557Z,74.10
2022-08-17T02:54:39.415Z,74.29
2022-08-17T02:55:01.455Z,74.77
2022-08-17T02:56:01.357Z,75.06
2022-08-17T02:57:01.281Z,75.06
2022-08-17T02:58:01.207Z,74.87
2022-08-17T02:59:01.133Z,74.87
2022-08-17T03:00:01.057Z,75.45
2022-08-17T03:01:00.987Z,75.35
2022-08-17T03:02:00.968Z,76.12
2022-08-17T03:03:00.829Z,75.63
2022-08-17T03:04:00.750Z,75.73
2022-08-17T03:05:00.676Z,75.45
2022-08-17T03:06:00.600Z,75.92
2022-08-17T03:07:00.527Z,74.77
2022-08-17T03:08:00.449Z,73.04
2022-08-17T03:09:00.367Z,72.18
2022-08-17T03:10:00.301Z,72.08
2022-08-17T03:11:00.222Z,72.95
2022-08-17T03:12:00.145Z,71.98
2022-08-17T03:13:00.070Z,72.85
2022-08-17T03:13:59.990Z,72.95
2022-08-17T03:14:59.914Z,73.72
2022-08-17T03:15:59.854Z,74.39
2022-08-17T03:16:59.762Z,74.68
2022-08-17T03:17:59.689Z,74.48
2022-08-17T03:18:59.613Z,74.96
2022-08-17T03:19:59.539Z,74.96
2022-08-17T03:20:59.462Z,74.77
2022-08-17T03:21:59.382Z,75.82
2022-08-17T03:23:02.924Z,74.77
2022-08-17T03:23:59.236Z,74.87
2022-08-17T03:24:59.152Z,74.01
2022-08-17T03:25:59.081Z,74.77
2022-08-17T03:26:58.998Z,74.68
2022-08-17T03:27:58.924Z,74.77
2022-08-17T03:28:58.852Z,74.77
2022-08-17T03:29:58.773Z,75.45
2022-08-17T03:30:58.702Z,74.39
2022-08-17T03:31:58.619Z,74.10
2022-08-17T03:32:58.546Z,73.24
2022-08-17T03:33:58.472Z,72.95
2022-08-17T03:34:58.390Z,72.85
2022-08-17T03:35:58.320Z,73.33
2022-08-17T03:36:58.242Z,73.81
2022-08-17T03:38:00.718Z,73.91
2022-08-17T03:38:58.089Z,73.33
2022-08-17T03:39:58.051Z,74.01
2022-08-17T03:40:59.884Z,73.91
2022-08-17T03:41:57.862Z,73.24
2022-08-17T03:42:57.789Z,73.14
2022-08-17T03:43:57.710Z,73.10
2022-08-17T03:44:57.779Z,73.10
2022-08-17T03:45:57.561Z,73.14
2022-08-17T03:46:57.475Z,72.85
2022-08-17T03:47:57.405Z,72.85
2022-08-17T03:48:57.331Z,72.95
2022-08-17T03:49:57.258Z,72.47
2022-08-17T03:50:57.175Z,72.85
2022-08-17T03:51:57.096Z,72.91
2022-08-17T03:52:57.285Z,72.95
2022-08-17T03:53:56.944Z,72.63
2022-08-17T03:54:56.874Z,72.63
2022-08-17T03:55:56.793Z,72.81
2022-08-17T03:56:56.718Z,72.81
2022-08-17T03:57:56.640Z,72.81
2022-08-17T03:58:56.570Z,72.63
2022-08-17T03:59:56.491Z,72.53
2022-08-17T04:00:56.414Z,72.81
2022-08-17T04:01:56.350Z,72.75
2022-08-17T04:02:56.265Z,73.30
2022-08-17T04:03:56.187Z,72.72
2022-08-17T04:04:56.118Z,72.72
2022-08-17T04:05:56.034Z,72.24
2022-08-17T04:06:55.953Z,71.95
2022-08-17T04:07:55.882Z,72.33
2022-08-17T04:08:55.806Z,71.47
2022-08-17T04:09:55.730Z,71.76
2022-08-17T04:10:55.654Z,71.47
2022-08-17T04:11:55.572Z,71.66
2022-08-17T04:12:55.497Z,71.47
2022-08-17T04:13:55.419Z,71.95
2022-08-17T04:14:55.452Z,70.80
2022-08-17T04:15:55.266Z,69.65
2022-08-17T04:16:55.197Z,68.79
2022-08-17T04:17:55.118Z,68.50
2022-08-17T04:18:55.037Z,69.26
2022-08-17T04:19:54.974Z,69.65
2022-08-17T04:20:54.891Z,70.61
2022-08-17T04:21:54.813Z,70.03
2022-08-17T04:22:54.737Z,69.56
2022-08-17T04:23:54.662Z,69.84
2022-08-17T04:24:54.589Z,70.90
2022-08-17T04:25:54.505Z,70.61
2022-08-17T04:26:54.759Z,70.70
2022-08-17T04:27:54.355Z,70.23
2022-08-17T04:28:54.279Z,69.17
2022-08-17T04:29:55.783Z,70.42
2022-08-17T04:30:54.130Z,69.93
2022-08-17T04:31:54.047Z,69.93
2022-08-17T04:33:04.504Z,70.42
2022-08-17T04:33:53.898Z,69.84
2022-08-17T04:34:53.821Z,69.93
2022-08-17T04:35:53.748Z,69.74
2022-08-17T04:36:53.669Z,69.65
2022-08-17T04:37:53.598Z,69.74
2022-08-17T04:38:53.521Z,69.93
2022-08-17T04:39:53.522Z,69.93
2022-08-17T04:40:53.363Z,70.70
2022-08-17T04:41:53.286Z,70.61
2022-08-17T04:42:53.212Z,71.28
2022-08-17T04:43:53.135Z,70.80
2022-08-17T04:44:53.054Z,70.61
2022-08-17T04:45:56.330Z,70.61
2022-08-17T04:46:52.907Z,71.66
2022-08-17T04:47:52.831Z,71.47
2022-08-17T04:48:52.753Z,71.28
2022-08-17T04:49:52.675Z,71.66
2022-08-17T04:50:52.598Z,71.37
2022-08-17T04:51:54.710Z,71.19
2022-08-17T04:52:52.454Z,71.47
2022-08-17T04:53:54.193Z,71.47
2022-08-17T04:54:52.297Z,71.09
2022-08-17T04:55:52.220Z,72.24
2022-08-17T04:56:52.148Z,71.28
2022-08-17T04:57:52.059Z,71.37
2022-08-17T04:58:51.991Z,71.86
2022-08-17T04:59:51.913Z,71.86
2022-08-17T05:00:51.861Z,70.80
2022-08-17T05:01:51.758Z,69.84
2022-08-17T05:02:52.015Z,71.47
2022-08-17T05:03:51.611Z,72.24
2022-08-17T05:04:51.534Z,72.95
2022-08-17T05:05:51.450Z,72.85
2022-08-17T05:06:51.381Z,73.14
2022-08-17T05:07:51.302Z,73.14
2022-08-17T05:08:51.224Z,74.01
2022-08-17T05:09:51.151Z,74.01
2022-08-17T05:10:51.076Z,74.01
2022-08-17T05:11:51.001Z,74.10
2022-08-17T05:12:51.041Z,74.29
2022-08-17T05:13:50.845Z,73.91
2022-08-17T05:14:50.769Z,74.19
2022-08-17T05:15:50.696Z,74.01
2022-08-17T05:16:50.614Z,73.24
2022-08-17T05:17:50.540Z,73.24
2022-08-17T05:18:50.464Z,73.24
2022-08-17T05:19:52.124Z,72.85
2022-08-17T05:20:50.310Z,73.14
2022-08-17T05:21:50.239Z,73.52
2022-08-17T05:22:50.397Z,73.62
2022-08-17T05:23:50.415Z,73.72
2022-08-17T05:24:53.953Z,73.33
2022-08-17T05:25:50.490Z,72.85
2022-08-17T05:26:49.852Z,74.58
2022-08-17T05:27:49.773Z,74.87
2022-08-17T05:28:49.705Z,74.71
2022-08-17T05:29:49.632Z,74.13
2022-08-17T05:30:49.557Z,73.85
2022-08-17T05:31:49.471Z,74.13
2022-08-17T05:32:49.493Z,75.29
2022-08-17T05:33:50.171Z,75.57
2022-08-17T05:34:49.242Z,75.20
2022-08-17T05:35:49.168Z,75.48
2022-08-17T05:36:49.090Z,76.64
2022-08-17T05:37:49.013Z,76.34
2022-08-17T05:38:48.939Z,76.82
2022-08-17T05:39:48.891Z,76.25
2022-08-17T05:40:48.791Z,75.10
2022-08-17T05:41:48.758Z,73.27
2022-08-17T05:42:48.633Z,75.00
2022-08-17T05:43:51.839Z,75.52
2022-08-17T05:44:48.486Z,77.59
2022-08-17T05:45:55.147Z,76.82
2022-08-17T05:46:48.331Z,76.96
2022-08-17T05:47:48.260Z,77.73
2022-08-17T05:48:48.185Z,77.83
2022-08-17T05:49:49.121Z,78.21
2022-08-17T05:50:55.238Z,78.50
2022-08-17T05:52:52.126Z,78.21
2022-08-17T05:53:51.787Z,77.53
2022-08-17T05:55:55.617Z,78.59
2022-08-17T05:56:55.537Z,79.27
2022-08-17T05:58:59.388Z,79.94
2022-08-17T05:59:59.293Z,79.75
2022-08-17T06:01:52.139Z,79.94
2022-08-17T06:02:52.234Z,80.46
2022-08-17T06:04:55.852Z,80.65
2022-08-17T06:05:55.764Z,80.55
2022-08-17T06:07:59.611Z,79.98
2022-08-17T06:08:59.529Z,80.17
2022-08-17T06:11:03.858Z,80.36
2022-08-17T06:12:03.774Z,79.69
2022-08-17T06:14:07.654Z,81.27
2022-08-17T06:15:07.562Z,81.07
2022-08-17T06:17:11.424Z,79.25
2022-08-17T06:18:14.774Z,80.69
2022-08-17T06:20:15.176Z,80.88
2022-08-17T06:21:15.097Z,79.25
2022-08-17T06:23:18.984Z,82.14
2022-08-17T06:24:18.883Z,80.30
2022-08-17T06:26:25.921Z,79.86
2022-08-17T06:27:22.658Z,81.02
2022-08-17T06:29:26.507Z,82.65
2022-08-17T06:30:26.428Z,82.65
2022-08-17T06:32:19.230Z,83.62
2022-08-17T06:33:19.132Z,84.29
2022-08-17T06:35:22.973Z,83.91
2022-08-17T06:36:22.888Z,87.12
2022-08-17T06:38:38.564Z,84.91
2022-08-17T06:39:26.737Z,84.62
2022-08-17T06:41:30.983Z,87.80
2022-08-17T06:43:05.150Z,87.51
2022-08-17T06:44:43.336Z,88.09
2022-08-17T06:45:34.676Z,89.53
2022-08-17T06:47:38.516Z,88.67
2022-08-17T06:48:38.438Z,88.85
2022-08-17T06:50:42.308Z,90.34
2022-08-17T06:51:42.218Z,88.90
2022-08-17T06:53:46.085Z,90.16
2022-08-17T06:54:45.989Z,91.21
2022-08-17T06:55:45.915Z,90.64
2022-08-17T06:56:53.394Z,89.29
2022-08-17T06:57:45.760Z,92.47
2022-08-17T06:58:45.689Z,93.04
2022-08-17T06:59:55.843Z,93.86
2022-08-17T07:00:45.594Z,92.32
2022-08-17T07:01:45.465Z,92.71
2022-08-17T07:02:53.181Z,92.99
2022-08-17T07:03:45.309Z,91.55
2022-08-17T07:04:45.241Z,93.86
2022-08-17T07:05:45.168Z,94.63
2022-08-17T07:06:45.090Z,93.66
2022-08-17T07:07:45.015Z,94.44
2022-08-17T07:08:44.939Z,94.06
2022-08-17T07:09:44.864Z,93.04
2022-08-17T07:10:44.788Z,94.39
2022-08-17T07:11:44.718Z,94.00
2022-08-17T07:12:44.641Z,93.81
2022-08-17T07:13:44.570Z,94.39
2022-08-17T07:14:44.492Z,96.03
2022-08-17T07:15:44.419Z,95.64
2022-08-17T07:16:44.345Z,95.26
2022-08-17T07:17:47.325Z,94.48
2022-08-17T07:18:44.190Z,94.20
2022-08-17T07:19:44.124Z,95.98
2022-08-17T07:20:44.041Z,96.27
2022-08-17T07:21:43.975Z,95.98
2022-08-17T07:22:53.558Z,96.08
2022-08-17T07:23:43.821Z,96.08
2022-08-17T07:24:43.747Z,96.08
2022-08-17T07:25:43.674Z,95.88
2022-08-17T07:26:43.600Z,96.08
2022-08-17T07:27:43.571Z,96.70
2022-08-17T07:28:43.450Z,97.09
2022-08-17T07:29:43.375Z,96.51
2022-08-17T07:30:47.120Z,94.87
2022-08-17T07:31:43.223Z,95.54
2022-08-17T07:32:43.157Z,97.77
2022-08-17T07:33:43.075Z,97.96
2022-08-17T07:34:43.003Z,96.61
2022-08-17T07:35:43.696Z,97.67
2022-08-17T07:36:42.855Z,98.44
2022-08-17T07:37:42.811Z,98.05
2022-08-17T07:38:42.707Z,99.21
2022-08-17T07:39:59.664Z,98.49
2022-08-17T07:40:42.644Z,97.91
2022-08-17T07:41:53.392Z,99.16
2022-08-17T07:42:46.559Z,99.45
2022-08-17T07:43:42.342Z,99.36
2022-08-17T07:44:42.265Z,98.78
2022-08-17T07:45:42.190Z,98.88
2022-08-17T07:46:42.121Z,99.65
2022-08-17T07:47:42.041Z,99.16
2022-08-17T07:48:41.966Z,99.41
2022-08-17T07:49:41.897Z,99.36
2022-08-17T07:50:41.818Z,99.69
2022-08-17T07:51:41.752Z,99.99
2022-08-17T07:52:51.236Z,99.99
2022-08-17T07:53:41.601Z,99.60
2022-08-17T07:54:41.522Z,99.89
2022-08-17T07:55:41.452Z,99.50
2022-08-17T07:56:41.379Z,99.89
2022-08-17T07:57:41.306Z,99.69
2022-08-17T07:58:41.233Z,99.41
2022-08-17T07:59:43.301Z,99.99
2022-08-17T08:00:41.083Z,99.50
2022-08-17T08:01:41.992Z,99.36
2022-08-17T08:02:40.935Z,97.62
2022-08-17T08:03:40.862Z,97.62
2022-08-17T08:04:59.640Z,97.23
2022-08-17T08:05:49.927Z,96.46
2022-08-17T08:06:40.640Z,95.40
2022-08-17T08:07:40.565Z,95.68
2022-08-17T08:08:40.493Z,95.25
2022-08-17T08:09:40.422Z,93.90
2022-08-17T08:10:45.341Z,91.28
2022-08-17T08:11:44.194Z,89.25
2022-08-17T08:12:40.201Z,89.20
2022-08-17T08:13:40.129Z,89.06
2022-08-17T08:14:40.051Z,89.20
2022-08-17T08:15:39.988Z,86.69
2022-08-17T08:16:39.909Z,85.82
2022-08-17T08:17:39.835Z,89.20
2022-08-17T08:18:55.338Z,89.59
2022-08-17T08:19:39.688Z,88.13
2022-08-17T08:20:53.067Z,89.20
2022-08-17T08:21:39.548Z,87.27
2022-08-17T08:22:39.466Z,85.72
2022-08-17T08:23:39.397Z,84.08
2022-08-17T08:24:39.321Z,81.17
2022-08-17T08:25:39.249Z,79.33
2022-08-17T08:26:39.175Z,79.52
2022-08-17T08:27:39.100Z,79.08
2022-08-17T08:28:39.028Z,78.89
2022-08-17T08:29:38.953Z,78.89
2022-08-17T08:30:38.885Z,78.21
2022-08-17T08:31:42.186Z,75.40
2022-08-17T08:32:38.738Z,75.31
2022-08-17T08:33:38.660Z,76.18
2022-08-17T08:34:45.032Z,77.63
2022-08-17T08:35:38.516Z,79.27
2022-08-17T08:37:12.922Z,81.54
2022-08-17T08:37:42.652Z,80.28
2022-08-17T08:38:38.298Z,79.57
2022-08-17T08:39:38.247Z,75.73
2022-08-17T08:40:38.152Z,74.08
2022-08-17T08:41:38.085Z,74.66
2022-08-17T08:42:38.004Z,74.18
2022-08-17T08:43:37.937Z,73.69
2022-08-17T08:45:01.096Z,72.73
2022-08-17T08:45:37.787Z,75.54
2022-08-17T08:46:37.715Z,72.83
2022-08-17T08:47:37.649Z,71.70
2022-08-17T08:48:53.808Z,73.73
2022-08-17T08:50:02.603Z,73.83
2022-08-17T08:50:38.613Z,74.02
2022-08-17T08:51:37.354Z,74.60
2022-08-17T08:52:37.280Z,75.19
2022-08-17T08:53:37.208Z,74.70
2022-08-17T08:54:37.139Z,74.02
2022-08-17T08:55:37.066Z,72.86
2022-08-17T08:56:36.995Z,72.77
2022-08-17T08:57:36.918Z,70.15
2022-08-17T08:58:41.692Z,71.25
2022-08-17T08:59:42.139Z,69.41
2022-08-17T09:00:36.700Z,69.21
2022-08-17T09:01:36.651Z,69.60
2022-08-17T09:02:36.554Z,67.85
2022-08-17T09:03:51.872Z,67.08
2022-08-17T09:04:55.926Z,66.40
2022-08-17T09:05:36.339Z,66.50
2022-08-17T09:06:39.741Z,66.60
2022-08-17T09:07:36.194Z,66.89
2022-08-17T09:08:36.121Z,68.86
2022-08-17T09:09:36.047Z,67.31
2022-08-17T09:10:35.977Z,67.11
2022-08-17T09:11:35.905Z,66.05
2022-08-17T09:12:35.829Z,66.14
2022-08-17T09:13:35.765Z,66.72
2022-08-17T09:14:45.382Z,66.05
2022-08-17T09:15:35.612Z,65.08
2022-08-17T09:16:35.543Z,65.75
2022-08-17T09:17:35.477Z,65.56
2022-08-17T09:19:00.841Z,65.20
2022-08-17T09:19:35.330Z,65.11
2022-08-17T09:20:35.254Z,65.59
2022-08-17T09:21:35.191Z,65.59
2022-08-17T09:22:35.118Z,64.53
2022-08-17T09:23:35.043Z,64.23
2022-08-17T09:24:34.970Z,63.36
2022-08-17T09:25:34.893Z,63.07
2022-08-17T09:26:34.830Z,62.71
2022-08-17T09:27:34.751Z,62.32
2022-08-17T09:28:34.686Z,62.52
2022-08-17T09:29:34.614Z,61.84
2022-08-17T09:30:34.537Z,62.23
2022-08-17T09:31:34.482Z,61.77
2022-08-17T09:32:34.396Z,61.84
2022-08-17T09:33:34.317Z,61.38
2022-08-17T09:34:34.250Z,60.22
2022-08-17T09:35:36.914Z,61.19
2022-08-17T09:36:34.109Z,60.41
2022-08-17T09:37:34.033Z,60.41
2022-08-17T09:38:33.962Z,61.61
2022-08-17T09:39:33.937Z,61.12
2022-08-17T09:40:33.818Z,60.25
2022-08-17T09:41:33.745Z,60.54
2022-08-17T09:42:33.676Z,59.08
2022-08-17T09:43:33.608Z,58.69
2022-08-17T09:44:33.538Z,58.59
2022-08-17T09:45:33.465Z,57.62
2022-08-17T09:46:33.393Z,57.72
2022-08-17T09:47:33.318Z,56.39
2022-08-17T09:48:33.249Z,57.23
2022-08-17T09:49:33.180Z,56.77
2022-08-17T09:50:57.421Z,56.26
2022-08-17T09:51:33.030Z,57.72
2022-08-17T09:52:32.960Z,56.85
2022-08-17T09:53:32.892Z,56.49
2022-08-17T09:54:39.312Z,56.29
2022-08-17T09:55:32.751Z,56.20
2022-08-17T09:56:32.678Z,56.39
2022-08-17T09:57:32.776Z,56.68
2022-08-17T09:58:32.532Z,56.20
2022-08-17T09:59:38.255Z,55.41
2022-08-17T10:00:32.392Z,55.22
2022-08-17T10:01:32.404Z,55.61
2022-08-17T10:02:32.248Z,55.71
2022-08-17T10:03:32.175Z,56.32
2022-08-17T10:04:32.103Z,56.71
2022-08-17T10:05:32.032Z,56.61
2022-08-17T10:06:31.965Z,55.54
2022-08-17T10:07:31.898Z,54.86
2022-08-17T10:08:31.854Z,54.76
2022-08-17T10:09:31.753Z,55.05
2022-08-17T10:10:32.373Z,54.47
2022-08-17T10:11:33.732Z,54.18
2022-08-17T10:12:31.536Z,53.89
2022-08-17T10:13:31.488Z,53.40
2022-08-17T10:14:37.517Z,54.08
2022-08-17T10:15:31.326Z,54.57
2022-08-17T10:16:31.258Z,54.60
2022-08-17T10:17:31.185Z,53.42
2022-08-17T10:18:33.221Z,54.01
2022-08-17T10:19:31.041Z,53.14
2022-08-17T10:20:30.972Z,54.30
2022-08-17T10:21:30.902Z,52.94
2022-08-17T10:22:34.873Z,52.97
2022-08-17T10:23:30.760Z,53.65
2022-08-17T10:24:30.684Z,53.75
2022-08-17T10:25:49.100Z,53.65
2022-08-17T10:26:43.006Z,54.13
2022-08-17T10:27:30.475Z,53.55
2022-08-17T10:28:30.585Z,53.65
2022-08-17T10:29:30.333Z,52.58
2022-08-17T10:30:30.263Z,52.50
2022-08-17T10:31:34.816Z,52.89
2022-08-17T10:32:30.125Z,52.40
2022-08-17T10:33:30.051Z,51.04
2022-08-17T10:34:29.982Z,50.46
2022-08-17T10:35:29.908Z,50.36
2022-08-17T10:36:29.839Z,50.87
2022-08-17T10:37:29.765Z,50.87
2022-08-17T10:38:29.698Z,50.78
2022-08-17T10:39:29.665Z,50.19
2022-08-17T10:40:29.593Z,49.41
2022-08-17T10:41:29.485Z,49.24
2022-08-17T10:42:30.493Z,49.44
2022-08-17T10:43:29.350Z,50.99
2022-08-17T10:44:40.516Z,49.63
2022-08-17T10:45:29.207Z,48.85
2022-08-17T10:46:31.607Z,49.83
2022-08-17T10:47:29.064Z,48.95
2022-08-17T10:48:29.001Z,47.68
2022-08-17T10:49:28.929Z,48.78
2022-08-17T10:50:28.856Z,49.37
2022-08-17T10:51:28.783Z,49.37
2022-08-17T10:52:28.716Z,47.71
2022-08-17T10:53:28.648Z,47.61
2022-08-17T10:54:28.579Z,47.51
2022-08-17T10:55:28.510Z,46.34
2022-08-17T10:56:28.436Z,46.75
2022-08-17T10:57:28.370Z,46.07
2022-08-17T10:58:28.297Z,45.78
2022-08-17T10:59:28.231Z,46.29
2022-08-17T11:00:28.161Z,45.78
2022-08-17T11:01:28.121Z,45.19
2022-08-17T11:02:28.018Z,45.31
2022-08-17T11:03:27.945Z,45.31
2022-08-17T11:04:27.877Z,45.90
2022-08-17T11:05:27.805Z,45.21
2022-08-17T11:06:27.738Z,45.90
2022-08-17T11:07:27.680Z,45.61
2022-08-17T11:08:27.608Z,45.41
2022-08-17T11:09:27.533Z,46.01
2022-08-17T11:10:27.460Z,46.80
2022-08-17T11:11:27.389Z,45.92
2022-08-17T11:12:27.327Z,44.74
2022-08-17T11:13:27.258Z,44.16
2022-08-17T11:14:27.182Z,44.26
2022-08-17T11:15:27.112Z,43.57
2022-08-17T11:16:27.050Z,43.87
2022-08-17T11:17:26.975Z,43.67
2022-08-17T11:18:26.903Z,43.48
2022-08-17T11:19:26.841Z,43.67
2022-08-17T11:20:26.768Z,43.96
2022-08-17T11:21:26.696Z,44.74
2022-08-17T11:22:31.270Z,44.67
2022-08-17T11:23:26.563Z,44.96
2022-08-17T11:24:26.491Z,43.79
2022-08-17T11:25:26.424Z,43.79
2022-08-17T11:26:26.444Z,42.61
2022-08-17T11:27:26.290Z,43.49
2022-08-17T11:28:26.218Z,43.99
2022-08-17T11:29:26.150Z,45.16
2022-08-17T11:30:26.791Z,46.33
2022-08-17T11:31:38.662Z,45.57
2022-08-17T11:32:25.939Z,44.96
2022-08-17T11:33:25.870Z,45.06
2022-08-17T11:34:25.796Z,45.67
2022-08-17T11:35:25.728Z,45.37
2022-08-17T11:36:25.665Z,44.89
2022-08-17T11:37:25.594Z,44.69
2022-08-17T11:38:25.525Z,43.24
2022-08-17T11:39:25.559Z,41.97
2022-08-17T11:40:25.386Z,39.62
2022-08-17T11:41:25.317Z,39.53
2022-08-17T11:42:25.247Z,38.86
2022-08-17T11:43:25.594Z,39.74
2022-08-17T11:44:25.113Z,39.84
2022-08-17T11:45:32.252Z,40.94
2022-08-17T11:46:24.974Z,42.21
2022-08-17T11:47:24.904Z,41.23
2022-08-17T11:48:28.322Z,41.02
2022-08-17T11:49:24.767Z,40.16
2022-08-17T11:50:27.832Z,41.42
2022-08-17T11:51:24.633Z,40.64
2022-08-17T11:52:24.567Z,41.92
2022-08-17T11:53:24.497Z,40.64
2022-08-17T11:54:33.193Z,39.96
2022-08-17T11:55:35.400Z,39.88
2022-08-17T11:56:24.292Z,39.69
2022-08-17T11:57:24.221Z,39.80
2022-08-17T11:58:24.149Z,40.09
2022-08-17T11:59:24.089Z,40.00
2022-08-17T12:00:24.021Z,39.11
2022-08-17T12:01:23.949Z,38.62
2022-08-17T12:02:23.885Z,38.72
2022-08-17T12:03:23.875Z,39.03
2022-08-17T12:04:23.757Z,39.92
2022-08-17T12:05:23.678Z,38.15
2022-08-17T12:06:23.605Z,37.86
2022-08-17T12:07:23.536Z,38.17
2022-08-17T12:08:23.469Z,38.17
2022-08-17T12:09:23.404Z,38.66
2022-08-17T12:10:23.334Z,37.48
2022-08-17T12:11:58.731Z,38.66
2022-08-17T12:12:23.204Z,38.78
2022-08-17T12:13:23.130Z,38.98
2022-08-17T12:14:35.728Z,39.86
2022-08-17T12:15:22.998Z,39.58
2022-08-17T12:16:22.929Z,38.50
2022-08-17T12:17:39.713Z,38.31
2022-08-17T12:18:22.795Z,36.24
2022-08-17T12:19:22.726Z,35.55
2022-08-17T12:20:22.658Z,38.42
2022-08-17T12:21:22.593Z,39.70
2022-08-17T12:22:22.533Z,37.34
2022-08-17T12:23:22.466Z,35.99
2022-08-17T12:24:22.388Z,35.49
2022-08-17T12:25:22.323Z,35.59
2022-08-17T12:26:22.257Z,36.28
2022-08-17T12:27:46.253Z,37.18
2022-08-17T12:28:22.797Z,35.41
2022-08-17T12:29:35.587Z,36.00
2022-08-17T12:30:21.990Z,36.69
2022-08-17T12:31:21.957Z,37.30
2022-08-17T12:32:21.853Z,36.53
2022-08-17T12:33:25.211Z,34.77
2022-08-17T12:34:21.714Z,35.88
2022-08-17T12:35:21.648Z,33.92
2022-08-17T12:36:21.581Z,31.98
2022-08-17T12:37:21.517Z,31.91
2022-08-17T12:38:32.129Z,30.36
2022-08-17T12:39:21.607Z,29.79
2022-08-17T12:40:21.316Z,28.44
2022-08-17T12:41:21.250Z,29.06
2022-08-17T12:42:21.185Z,27.91
2022-08-17T12:43:21.116Z,29.43
2022-08-17T12:44:21.052Z,29.05
2022-08-17T12:45:20.986Z,27.59
2022-08-17T12:46:20.922Z,27.22
2022-08-17T12:47:22.564Z,26.56
2022-08-17T12:48:20.795Z,25.48
2022-08-17T12:49:20.726Z,25.79
2022-08-17T12:50:28.188Z,26.23
2022-08-17T12:51:20.598Z,25.67
2022-08-17T12:52:20.537Z,24.68
2022-08-17T12:53:20.479Z,23.19
2022-08-17T12:54:20.409Z,24.50
2022-08-17T12:55:20.349Z,23.61
2022-08-17T12:56:20.286Z,23.33
2022-08-17T12:57:20.226Z,21.91
2022-08-17T12:58:20.170Z,22.88
2022-08-17T12:59:30.418Z,23.06
2022-08-17T13:00:20.046Z,23.07
2022-08-17T13:01:20.024Z,22.69
2022-08-17T13:02:19.924Z,21.90
2022-08-17T13:03:19.862Z,21.92
2022-08-17T13:04:19.809Z,21.23
2022-08-17T13:05:19.750Z,21.65
2022-08-17T13:06:19.680Z,20.87
2022-08-17T13:07:19.631Z,21.60
2022-08-17T13:08:19.563Z,21.01
2022-08-17T13:09:19.511Z,20.11
2022-08-17T13:10:19.447Z,19.53
2022-08-17T13:11:19.389Z,19.95
2022-08-17T13:12:19.334Z,19.56
2022-08-17T13:13:19.291Z,18.37